sensor_id;sensor_type;location;lat;lon;timestamp;pressure;altitude;pressure_sealevel;temperature
20730;BMP280;10526;50.850;12.928;2023-04-01T00:01:45;96180.06;;;8.41
20730;BMP280;10526;50.850;12.928;2023-04-01T00:06:07;96190.66;;;8.41
20730;BMP280;10526;50.850;12.928;2023-04-01T00:10:29;96184.94;;;8.42
20730;BMP280;10526;50.850;12.928;2023-04-01T00:14:51;96184.50;;;8.44
20730;BMP280;10526;50.850;12.928;2023-04-01T00:19:14;96182.19;;;8.46
20730;BMP280;10526;50.850;12.928;2023-04-01T00:23:37;96176.44;;;8.47
20730;BMP280;10526;50.850;12.928;2023-04-01T00:27:59;96176.44;;;8.47
20730;BMP280;10526;50.850;12.928;2023-04-01T00:32:21;96179.94;;;8.44
20730;BMP280;10526;50.850;12.928;2023-04-01T00:36:44;96178.06;;;8.45
20730;BMP280;10526;50.850;12.928;2023-04-01T00:41:07;96176.16;;;8.45
20730;BMP280;10526;50.850;12.928;2023-04-01T00:45:35;96168.06;;;8.49
20730;BMP280;10526;50.850;12.928;2023-04-01T00:49:57;96176.25;;;8.55
20730;BMP280;10526;50.850;12.928;2023-04-01T00:54:23;96173.50;;;8.58
20730;BMP280;10526;50.850;12.928;2023-04-01T00:58:50;96174.56;;;8.61
20730;BMP280;10526;50.850;12.928;2023-04-01T01:03:13;96186.31;;;8.60
20730;BMP280;10526;50.850;12.928;2023-04-01T01:12:49;96183.34;;;8.58
20730;BMP280;10526;50.850;12.928;2023-04-01T01:17:51;96178.91;;;8.55
20730;BMP280;10526;50.850;12.928;2023-04-01T01:22:43;96172.94;;;8.51
20730;BMP280;10526;50.850;12.928;2023-04-01T01:27:22;96166.56;;;8.48
20730;BMP280;10526;50.850;12.928;2023-04-01T01:32:30;96168.06;;;8.49
20730;BMP280;10526;50.850;12.928;2023-04-01T01:36:59;96166.91;;;8.50
20730;BMP280;10526;50.850;12.928;2023-04-01T01:41:25;96165.44;;;8.49
20730;BMP280;10526;50.850;12.928;2023-04-01T01:45:56;96162.88;;;8.45
20730;BMP280;10526;50.850;12.928;2023-04-01T01:50:20;96166.69;;;8.44
20730;BMP280;10526;50.850;12.928;2023-04-01T01:54:53;96169.03;;;8.42
20730;BMP280;10526;50.850;12.928;2023-04-01T01:59:20;96172.84;;;8.41
20730;BMP280;10526;50.850;12.928;2023-04-01T02:03:44;96171.34;;;8.40
20730;BMP280;10526;50.850;12.928;2023-04-01T02:08:13;96163.06;;;8.38
20730;BMP280;10526;50.850;12.928;2023-04-01T02:12:38;96171.13;;;8.35
20730;BMP280;10526;50.850;12.928;2023-04-01T02:17:19;96164.25;;;8.37
20730;BMP280;10526;50.850;12.928;2023-04-01T02:21:42;96172.84;;;8.41
20730;BMP280;10526;50.850;12.928;2023-04-01T02:26:07;96164.34;;;8.46
20730;BMP280;10526;50.850;12.928;2023-04-01T02:30:34;96164.25;;;8.50
20730;BMP280;10526;50.850;12.928;2023-04-01T02:34:57;96158.88;;;8.54
20730;BMP280;10526;50.850;12.928;2023-04-01T02:39:21;96159.06;;;8.59
20730;BMP280;10526;50.850;12.928;2023-04-01T02:43:43;96164.28;;;8.63
20730;BMP280;10526;50.850;12.928;2023-04-01T02:48:06;96163.09;;;8.64
20730;BMP280;10526;50.850;12.928;2023-04-01T02:52:29;96172.44;;;8.68
20730;BMP280;10526;50.850;12.928;2023-04-01T02:56:54;96173.59;;;8.67
20730;BMP280;10526;50.850;12.928;2023-04-01T03:01:17;96170.53;;;8.69
20730;BMP280;10526;50.850;12.928;2023-04-01T03:05:39;96175.00;;;8.72
20730;BMP280;10526;50.850;12.928;2023-04-01T03:10:02;96178.41;;;8.72
20730;BMP280;10526;50.850;12.928;2023-04-01T03:14:24;96183.28;;;8.74
20730;BMP280;10526;50.850;12.928;2023-04-01T03:18:46;96179.13;;;8.73
20730;BMP280;10526;50.850;12.928;2023-04-01T03:23:09;96184.44;;;8.73
20730;BMP280;10526;50.850;12.928;2023-04-01T03:27:31;96184.84;;;8.71
20730;BMP280;10526;50.850;12.928;2023-04-01T03:31:53;96175.84;;;8.69
20730;BMP280;10526;50.850;12.928;2023-04-01T03:36:16;96185.84;;;8.65
20730;BMP280;10526;50.850;12.928;2023-04-01T03:40:43;96188.22;;;8.59
20730;BMP280;10526;50.850;12.928;2023-04-01T03:45:06;96190.34;;;8.52
20730;BMP280;10526;50.850;12.928;2023-04-01T03:49:28;96196.91;;;8.47
20730;BMP280;10526;50.850;12.928;2023-04-01T03:53:49;96204.97;;;8.43
20730;BMP280;10526;50.850;12.928;2023-04-01T03:58:12;96202.41;;;8.40
20730;BMP280;10526;50.850;12.928;2023-04-01T04:02:35;96203.59;;;8.39
20730;BMP280;10526;50.850;12.928;2023-04-01T04:06:57;96203.69;;;8.35
20730;BMP280;10526;50.850;12.928;2023-04-01T04:11:21;96204.13;;;8.34
20730;BMP280;10526;50.850;12.928;2023-04-01T04:15:46;96204.97;;;8.31
20730;BMP280;10526;50.850;12.928;2023-04-01T04:20:09;96208.44;;;8.28
20730;BMP280;10526;50.850;12.928;2023-04-01T04:24:31;96210.34;;;8.27
20730;BMP280;10526;50.850;12.928;2023-04-01T04:29:00;96216.19;;;8.22
20730;BMP280;10526;50.850;12.928;2023-04-01T04:33:25;96226.44;;;8.20
20730;BMP280;10526;50.850;12.928;2023-04-01T04:37:48;96218.91;;;8.18
20730;BMP280;10526;50.850;12.928;2023-04-01T04:42:10;96214.44;;;8.15
20730;BMP280;10526;50.850;12.928;2023-04-01T04:46:33;96224.31;;;8.15
20730;BMP280;10526;50.850;12.928;2023-04-01T04:51:05;96225.03;;;8.15
20730;BMP280;10526;50.850;12.928;2023-04-01T04:55:27;96218.91;;;8.18
20730;BMP280;10526;50.850;12.928;2023-04-01T05:00:09;96221.88;;;8.20
20730;BMP280;10526;50.850;12.928;2023-04-01T05:04:44;96221.81;;;8.24
20730;BMP280;10526;50.850;12.928;2023-04-01T05:09:06;96232.13;;;8.35
20730;BMP280;10526;50.850;12.928;2023-04-01T05:13:29;96231.84;;;8.45
20730;BMP280;10526;50.850;12.928;2023-04-01T05:17:51;96230.78;;;8.56
20730;BMP280;10526;50.850;12.928;2023-04-01T05:22:14;96242.47;;;8.71
20730;BMP280;10526;50.850;12.928;2023-04-01T05:26:37;96242.09;;;8.85
20730;BMP280;10526;50.850;12.928;2023-04-01T05:31:01;96240.31;;;8.95
20730;BMP280;10526;50.850;12.928;2023-04-01T05:35:29;96236.28;;;9.03
20730;BMP280;10526;50.850;12.928;2023-04-01T05:39:52;96246.78;;;9.07
20730;BMP280;10526;50.850;12.928;2023-04-01T05:44:14;96250.16;;;9.07
20730;BMP280;10526;50.850;12.928;2023-04-01T05:48:36;96240.06;;;9.02
20730;BMP280;10526;50.850;12.928;2023-04-01T05:52:59;96248.47;;;9.00
20730;BMP280;10526;50.850;12.928;2023-04-01T05:57:21;96247.22;;;9.05
20730;BMP280;10526;50.850;12.928;2023-04-01T06:01:44;96255.38;;;9.11
20730;BMP280;10526;50.850;12.928;2023-04-01T06:06:18;96253.03;;;9.13
20730;BMP280;10526;50.850;12.928;2023-04-01T06:11:23;96256.78;;;9.15
20730;BMP280;10526;50.850;12.928;2023-04-01T06:16:10;96261.97;;;9.19
20730;BMP280;10526;50.850;12.928;2023-04-01T06:25:37;96260.03;;;9.45
20730;BMP280;10526;50.850;12.928;2023-04-01T06:35:14;96269.66;;;9.77
20730;BMP280;10526;50.850;12.928;2023-04-01T06:40:17;96259.81;;;9.99
20730;BMP280;10526;50.850;12.928;2023-04-01T06:45:31;96271.25;;;10.22
20730;BMP280;10526;50.850;12.928;2023-04-01T06:50:43;96263.25;;;10.22
20730;BMP280;10526;50.850;12.928;2023-04-01T06:55:47;96284.47;;;10.00
20730;BMP280;10526;50.850;12.928;2023-04-01T07:00:42;96288.72;;;9.97
20730;BMP280;10526;50.850;12.928;2023-04-01T07:05:05;96272.59;;;10.26
20730;BMP280;10526;50.850;12.928;2023-04-01T07:09:40;96286.81;;;10.54
20730;BMP280;10526;50.850;12.928;2023-04-01T07:14:38;96295.97;;;11.06
20730;BMP280;10526;50.850;12.928;2023-04-01T07:24:00;96297.97;;;11.73
20730;BMP280;10526;50.850;12.928;2023-04-01T07:28:44;96299.31;;;12.05
20730;BMP280;10526;50.850;12.928;2023-04-01T07:33:44;96280.91;;;12.26
20730;BMP280;10526;50.850;12.928;2023-04-01T07:38:20;96302.75;;;12.24
20730;BMP280;10526;50.850;12.928;2023-04-01T07:48:26;96301.47;;;12.62
20730;BMP280;10526;50.850;12.928;2023-04-01T08:07:25;96310.91;;;14.78
20730;BMP280;10526;50.850;12.928;2023-04-01T08:21:54;96328.09;;;14.27
20730;BMP280;10526;50.850;12.928;2023-04-01T08:26:35;96326.44;;;13.67
20730;BMP280;10526;50.850;12.928;2023-04-01T08:31:34;96330.31;;;13.66
20730;BMP280;10526;50.850;12.928;2023-04-01T09:06:33;96316.75;;;12.80
20730;BMP280;10526;50.850;12.928;2023-04-01T09:45:41;96332.53;;;13.44
20730;BMP280;10526;50.850;12.928;2023-04-01T09:50:35;96326.38;;;13.76
20730;BMP280;10526;50.850;12.928;2023-04-01T09:55:33;96339.25;;;13.63
20730;BMP280;10526;50.850;12.928;2023-04-01T11:10:48;96344.81;;;13.98
20730;BMP280;10526;50.850;12.928;2023-04-01T11:25:55;96360.59;;;14.79
20730;BMP280;10526;50.850;12.928;2023-04-01T11:31:04;96363.69;;;14.19
20730;BMP280;10526;50.850;12.928;2023-04-01T11:35:49;96368.50;;;13.67
20730;BMP280;10526;50.850;12.928;2023-04-01T11:40:33;96367.84;;;13.48
20730;BMP280;10526;50.850;12.928;2023-04-01T11:45:57;96366.06;;;13.03
20730;BMP280;10526;50.850;12.928;2023-04-01T12:00:48;96372.91;;;13.13
20730;BMP280;10526;50.850;12.928;2023-04-01T12:10:21;96376.56;;;14.05
20730;BMP280;10526;50.850;12.928;2023-04-01T12:15:13;96378.38;;;13.99
20730;BMP280;10526;50.850;12.928;2023-04-01T12:34:43;96368.03;;;13.35
20730;BMP280;10526;50.850;12.928;2023-04-01T12:39:21;96369.22;;;13.34
20730;BMP280;10526;50.850;12.928;2023-04-01T12:44:06;96383.97;;;13.30
20730;BMP280;10526;50.850;12.928;2023-04-01T12:49:09;96389.72;;;13.37
20730;BMP280;10526;50.850;12.928;2023-04-01T13:03:16;96418.03;;;11.52
20730;BMP280;10526;50.850;12.928;2023-04-01T13:12:46;96415.34;;;12.01
20730;BMP280;10526;50.850;12.928;2023-04-01T13:26:40;96412.84;;;13.59
20730;BMP280;10526;50.850;12.928;2023-04-01T13:31:38;96411.13;;;14.72
20730;BMP280;10526;50.850;12.928;2023-04-01T13:51:06;96422.63;;;13.86
20730;BMP280;10526;50.850;12.928;2023-04-01T13:56:00;96421.91;;;14.09
20730;BMP280;10526;50.850;12.928;2023-04-01T14:00:45;96423.38;;;14.34
20730;BMP280;10526;50.850;12.928;2023-04-01T14:15:39;96430.19;;;13.87
20730;BMP280;10526;50.850;12.928;2023-04-01T14:20:27;96427.81;;;13.56
20730;BMP280;10526;50.850;12.928;2023-04-01T14:30:04;96444.63;;;13.05
20730;BMP280;10526;50.850;12.928;2023-04-01T14:34:40;96452.03;;;12.92
20730;BMP280;10526;50.850;12.928;2023-04-01T14:40:02;96448.03;;;12.60
20730;BMP280;10526;50.850;12.928;2023-04-01T14:44:46;96448.06;;;12.78
20730;BMP280;10526;50.850;12.928;2023-04-01T14:49:35;96448.81;;;12.79
20730;BMP280;10526;50.850;12.928;2023-04-01T14:54:36;96449.38;;;13.01
20730;BMP280;10526;50.850;12.928;2023-04-01T14:58:59;96446.22;;;13.21
20730;BMP280;10526;50.850;12.928;2023-04-01T15:03:39;96449.13;;;13.41
20730;BMP280;10526;50.850;12.928;2023-04-01T15:08:12;96450.38;;;13.64
20730;BMP280;10526;50.850;12.928;2023-04-01T15:18:02;96456.09;;;13.39
20730;BMP280;10526;50.850;12.928;2023-04-01T15:37:14;96461.22;;;13.18
20730;BMP280;10526;50.850;12.928;2023-04-01T15:46:47;96457.84;;;12.90
20730;BMP280;10526;50.850;12.928;2023-04-01T15:56:25;96469.13;;;12.85
20730;BMP280;10526;50.850;12.928;2023-04-01T16:01:45;96463.16;;;12.81
20730;BMP280;10526;50.850;12.928;2023-04-01T16:16:49;96472.78;;;12.33
20730;BMP280;10526;50.850;12.928;2023-04-01T16:21:36;96476.47;;;12.17
20730;BMP280;10526;50.850;12.928;2023-04-01T16:54:59;96511.63;;;11.85
20730;BMP280;10526;50.850;12.928;2023-04-01T16:59:38;96520.72;;;11.65
20730;BMP280;10526;50.850;12.928;2023-04-01T17:10:07;96527.34;;;11.39
20730;BMP280;10526;50.850;12.928;2023-04-01T17:14:45;96541.59;;;11.23
20730;BMP280;10526;50.850;12.928;2023-04-01T17:34:09;96549.28;;;10.74
20730;BMP280;10526;50.850;12.928;2023-04-01T17:49:39;96567.66;;;10.33
20730;BMP280;10526;50.850;12.928;2023-04-01T17:54:43;96575.97;;;10.23
20730;BMP280;10526;50.850;12.928;2023-04-01T18:08:50;96595.31;;;10.10
20730;BMP280;10526;50.850;12.928;2023-04-01T18:27:42;96610.81;;;9.99
20730;BMP280;10526;50.850;12.928;2023-04-01T18:42:08;96642.28;;;9.88
20730;BMP280;10526;50.850;12.928;2023-04-01T18:52:08;96653.06;;;9.81
20730;BMP280;10526;50.850;12.928;2023-04-01T18:56:39;96656.25;;;9.76
20730;BMP280;10526;50.850;12.928;2023-04-01T19:01:19;96654.53;;;9.69
20730;BMP280;10526;50.850;12.928;2023-04-01T19:05:49;96655.78;;;9.65
20730;BMP280;10526;50.850;12.928;2023-04-01T19:34:47;96683.97;;;9.75
20730;BMP280;10526;50.850;12.928;2023-04-01T19:39:46;96688.34;;;9.69
20730;BMP280;10526;50.850;12.928;2023-04-01T19:44:29;96696.56;;;9.58
20730;BMP280;10526;50.850;12.928;2023-04-01T19:49:19;96702.47;;;9.49
20730;BMP280;10526;50.850;12.928;2023-04-01T20:13:25;96725.38;;;9.60
20730;BMP280;10526;50.850;12.928;2023-04-01T20:17:53;96733.25;;;9.63
20730;BMP280;10526;50.850;12.928;2023-04-01T20:26:58;96746.88;;;9.65
20730;BMP280;10526;50.850;12.928;2023-04-01T20:31:43;96754.44;;;9.67
20730;BMP280;10526;50.850;12.928;2023-04-01T20:41:27;96763.06;;;9.71
20730;BMP280;10526;50.850;12.928;2023-04-01T20:50:56;96770.00;;;9.68
20730;BMP280;10526;50.850;12.928;2023-04-01T21:10:50;96781.19;;;9.60
20730;BMP280;10526;50.850;12.928;2023-04-01T21:15:44;96787.00;;;9.54
20730;BMP280;10526;50.850;12.928;2023-04-01T21:29:52;96804.78;;;9.41
20730;BMP280;10526;50.850;12.928;2023-04-01T21:49:38;96819.81;;;9.28
20730;BMP280;10526;50.850;12.928;2023-04-01T21:54:15;96824.16;;;9.22
20730;BMP280;10526;50.850;12.928;2023-04-01T22:09:34;96832.75;;;8.90
20730;BMP280;10526;50.850;12.928;2023-04-01T22:19:09;96845.88;;;8.77
20730;BMP280;10526;50.850;12.928;2023-04-01T22:23:58;96849.81;;;8.69
20730;BMP280;10526;50.850;12.928;2023-04-01T22:28:47;96847.75;;;8.57
20730;BMP280;10526;50.850;12.928;2023-04-01T22:33:32;96861.50;;;8.52
20730;BMP280;10526;50.850;12.928;2023-04-01T22:38:06;96870.78;;;8.40
20730;BMP280;10526;50.850;12.928;2023-04-01T22:43:07;96872.63;;;8.19
20730;BMP280;10526;50.850;12.928;2023-04-01T22:52:43;96885.25;;;8.12
20730;BMP280;10526;50.850;12.928;2023-04-01T23:01:59;96892.50;;;8.08
20730;BMP280;10526;50.850;12.928;2023-04-01T23:06:38;96890.16;;;8.13
20730;BMP280;10526;50.850;12.928;2023-04-01T23:11:07;96898.41;;;8.19
20730;BMP280;10526;50.850;12.928;2023-04-01T23:15:30;96908.31;;;8.15
20730;BMP280;10526;50.850;12.928;2023-04-01T23:20:19;96907.66;;;8.07
20730;BMP280;10526;50.850;12.928;2023-04-01T23:24:58;96918.38;;;8.00
20730;BMP280;10526;50.850;12.928;2023-04-01T23:29:22;96918.91;;;7.91
20730;BMP280;10526;50.850;12.928;2023-04-01T23:33:50;96937.56;;;7.81
20730;BMP280;10526;50.850;12.928;2023-04-01T23:38:17;96941.03;;;7.74
20730;BMP280;10526;50.850;12.928;2023-04-01T23:42:40;96946.75;;;7.73
20730;BMP280;10526;50.850;12.928;2023-04-01T23:47:04;96953.00;;;7.55
20730;BMP280;10526;50.850;12.928;2023-04-01T23:51:36;96956.94;;;7.44
20730;BMP280;10526;50.850;12.928;2023-04-01T23:56:02;96968.31;;;7.40
